sensor_id;sensor_type;location;lat;lon;timestamp;P1;durP1;ratioP1;P2;durP2;ratioP2
5752;SDS011;2901;42.140;24.760;2022-09-28T00:03:41;5.65;;;5.35;;
5752;SDS011;2901;42.140;24.760;2022-09-28T00:06:08;5.85;;;5.38;;
5752;SDS011;2901;42.140;24.760;2022-09-28T00:08:35;5.45;;;4.82;;
5752;SDS011;2901;42.140;24.760;2022-09-28T00:11:01;6.10;;;5.68;;
5752;SDS011;2901;42.140;24.760;2022-09-28T00:13:29;5.68;;;5.28;;
5752;SDS011;2901;42.140;24.760;2022-09-28T00:16:03;6.10;;;5.60;;
5752;SDS011;2901;42.140;24.760;2022-09-28T00:18:30;7.05;;;6.20;;
5752;SDS011;2901;42.140;24.760;2022-09-28T00:21:03;8.60;;;5.97;;
5752;SDS011;2901;42.140;24.760;2022-09-28T00:23:29;6.45;;;6.05;;
5752;SDS011;2901;42.140;24.760;2022-09-28T00:25:55;5.70;;;5.30;;
5752;SDS011;2901;42.140;24.760;2022-09-28T00:28:26;6.90;;;5.75;;
5752;SDS011;2901;42.140;24.760;2022-09-28T00:30:53;5.32;;;5.07;;
5752;SDS011;2901;42.140;24.760;2022-09-28T00:33:19;7.13;;;5.32;;
5752;SDS011;2901;42.140;24.760;2022-09-28T00:35:45;6.25;;;5.75;;
5752;SDS011;2901;42.140;24.760;2022-09-28T00:38:10;5.85;;;5.50;;
5752;SDS011;2901;42.140;24.760;2022-09-28T00:40:36;6.35;;;6.00;;
5752;SDS011;2901;42.140;24.760;2022-09-28T00:43:15;6.15;;;5.75;;
5752;SDS011;2901;42.140;24.760;2022-09-28T00:45:44;6.25;;;5.88;;
5752;SDS011;2901;42.140;24.760;2022-09-28T00:48:20;8.73;;;5.47;;
5752;SDS011;2901;42.140;24.760;2022-09-28T00:50:46;6.28;;;5.57;;
5752;SDS011;2901;42.140;24.760;2022-09-28T00:53:13;6.13;;;5.55;;
5752;SDS011;2901;42.140;24.760;2022-09-28T00:55:53;7.10;;;6.60;;
5752;SDS011;2901;42.140;24.760;2022-09-28T00:58:28;8.13;;;7.53;;
5752;SDS011;2901;42.140;24.760;2022-09-28T01:00:56;8.00;;;7.30;;
5752;SDS011;2901;42.140;24.760;2022-09-28T01:03:23;8.32;;;7.60;;
5752;SDS011;2901;42.140;24.760;2022-09-28T01:05:50;9.75;;;8.68;;
5752;SDS011;2901;42.140;24.760;2022-09-28T01:08:18;8.32;;;7.55;;
5752;SDS011;2901;42.140;24.760;2022-09-28T01:10:45;7.45;;;7.00;;
5752;SDS011;2901;42.140;24.760;2022-09-28T01:13:12;9.55;;;7.93;;
5752;SDS011;2901;42.140;24.760;2022-09-28T01:18:29;13.13;;;7.90;;
5752;SDS011;2901;42.140;24.760;2022-09-28T01:29:16;8.35;;;7.68;;
5752;SDS011;2901;42.140;24.760;2022-09-28T01:31:59;8.18;;;7.60;;
5752;SDS011;2901;42.140;24.760;2022-09-28T01:34:36;10.00;;;8.15;;
5752;SDS011;2901;42.140;24.760;2022-09-28T01:37:08;9.90;;;8.07;;
5752;SDS011;2901;42.140;24.760;2022-09-28T01:39:41;8.73;;;7.93;;
5752;SDS011;2901;42.140;24.760;2022-09-28T01:42:13;8.65;;;8.02;;
5752;SDS011;2901;42.140;24.760;2022-09-28T01:44:44;8.02;;;7.55;;
5752;SDS011;2901;42.140;24.760;2022-09-28T01:47:15;9.23;;;8.52;;
5752;SDS011;2901;42.140;24.760;2022-09-28T01:49:47;8.05;;;7.35;;
5752;SDS011;2901;42.140;24.760;2022-09-28T01:52:20;7.65;;;6.95;;
5752;SDS011;2901;42.140;24.760;2022-09-28T01:54:56;7.65;;;5.70;;
5752;SDS011;2901;42.140;24.760;2022-09-28T01:57:32;6.03;;;5.63;;
5752;SDS011;2901;42.140;24.760;2022-09-28T02:05:41;5.88;;;5.57;;
5752;SDS011;2901;42.140;24.760;2022-09-28T02:11:05;7.20;;;6.50;;
5752;SDS011;2901;42.140;24.760;2022-09-28T02:13:39;7.35;;;6.78;;
5752;SDS011;2901;42.140;24.760;2022-09-28T02:18:40;7.30;;;6.70;;
5752;SDS011;2901;42.140;24.760;2022-09-28T02:21:08;9.32;;;7.75;;
5752;SDS011;2901;42.140;24.760;2022-09-28T02:23:39;7.47;;;6.88;;
5752;SDS011;2901;42.140;24.760;2022-09-28T02:26:21;11.35;;;8.88;;
5752;SDS011;2901;42.140;24.760;2022-09-28T02:28:51;13.77;;;8.88;;
5752;SDS011;2901;42.140;24.760;2022-09-28T02:31:16;9.80;;;7.93;;
5752;SDS011;2901;42.140;24.760;2022-09-28T02:33:42;8.00;;;7.47;;
5752;SDS011;2901;42.140;24.760;2022-09-28T02:36:09;11.07;;;8.07;;
5752;SDS011;2901;42.140;24.760;2022-09-28T02:38:35;8.82;;;7.35;;
5752;SDS011;2901;42.140;24.760;2022-09-28T02:57:41;13.68;;;7.93;;
5752;SDS011;2901;42.140;24.760;2022-09-28T03:01:05;9.88;;;9.00;;
5752;SDS011;2901;42.140;24.760;2022-09-28T03:03:44;10.82;;;9.63;;
5752;SDS011;2901;42.140;24.760;2022-09-28T03:06:18;9.93;;;8.90;;
5752;SDS011;2901;42.140;24.760;2022-09-28T03:09:11;11.13;;;10.20;;
5752;SDS011;2901;42.140;24.760;2022-09-28T03:11:46;12.65;;;9.73;;
5752;SDS011;2901;42.140;24.760;2022-09-28T03:14:15;11.50;;;10.60;;
5752;SDS011;2901;42.140;24.760;2022-09-28T03:16:42;11.48;;;10.63;;
5752;SDS011;2901;42.140;24.760;2022-09-28T03:19:10;11.55;;;10.10;;
5752;SDS011;2901;42.140;24.760;2022-09-28T03:21:36;11.95;;;10.82;;
5752;SDS011;2901;42.140;24.760;2022-09-28T03:24:02;10.57;;;9.70;;
5752;SDS011;2901;42.140;24.760;2022-09-28T03:26:28;10.55;;;9.55;;
5752;SDS011;2901;42.140;24.760;2022-09-28T03:28:54;11.18;;;10.32;;
5752;SDS011;2901;42.140;24.760;2022-09-28T03:31:19;10.82;;;9.48;;
5752;SDS011;2901;42.140;24.760;2022-09-28T03:33:44;11.07;;;10.00;;
5752;SDS011;2901;42.140;24.760;2022-09-28T03:36:10;10.80;;;9.93;;
5752;SDS011;2901;42.140;24.760;2022-09-28T03:38:35;12.27;;;11.18;;
5752;SDS011;2901;42.140;24.760;2022-09-28T03:41:01;10.70;;;9.80;;
5752;SDS011;2901;42.140;24.760;2022-09-28T03:43:26;12.50;;;11.30;;
5752;SDS011;2901;42.140;24.760;2022-09-28T03:45:54;10.75;;;9.77;;
5752;SDS011;2901;42.140;24.760;2022-09-28T03:48:25;14.65;;;11.90;;
5752;SDS011;2901;42.140;24.760;2022-09-28T03:50:55;12.00;;;10.38;;
5752;SDS011;2901;42.140;24.760;2022-09-28T03:53:21;16.45;;;11.70;;
5752;SDS011;2901;42.140;24.760;2022-09-28T03:55:47;10.32;;;8.52;;
5752;SDS011;2901;42.140;24.760;2022-09-28T03:58:14;12.15;;;8.27;;
5752;SDS011;2901;42.140;24.760;2022-09-28T04:00:40;9.63;;;8.63;;
5752;SDS011;2901;42.140;24.760;2022-09-28T04:03:05;11.70;;;8.15;;
5752;SDS011;2901;42.140;24.760;2022-09-28T04:05:31;25.10;;;9.25;;
5752;SDS011;2901;42.140;24.760;2022-09-28T04:07:56;15.77;;;7.65;;
5752;SDS011;2901;42.140;24.760;2022-09-28T04:10:22;13.73;;;7.88;;
5752;SDS011;2901;42.140;24.760;2022-09-28T04:12:48;12.32;;;9.25;;
5752;SDS011;2901;42.140;24.760;2022-09-28T04:15:14;10.85;;;7.20;;
5752;SDS011;2901;42.140;24.760;2022-09-28T04:17:40;11.30;;;7.72;;
5752;SDS011;2901;42.140;24.760;2022-09-28T04:20:07;20.27;;;8.73;;
5752;SDS011;2901;42.140;24.760;2022-09-28T04:22:33;13.77;;;8.65;;
5752;SDS011;2901;42.140;24.760;2022-09-28T04:25:01;16.48;;;7.90;;
5752;SDS011;2901;42.140;24.760;2022-09-28T04:27:27;10.00;;;7.32;;
5752;SDS011;2901;42.140;24.760;2022-09-28T04:30:11;12.18;;;7.85;;
5752;SDS011;2901;42.140;24.760;2022-09-28T04:32:37;9.10;;;6.82;;
5752;SDS011;2901;42.140;24.760;2022-09-28T04:35:02;14.13;;;7.57;;
5752;SDS011;2901;42.140;24.760;2022-09-28T04:37:28;6.95;;;6.18;;
5752;SDS011;2901;42.140;24.760;2022-09-28T04:39:55;6.75;;;6.22;;
5752;SDS011;2901;42.140;24.760;2022-09-28T04:42:20;6.47;;;5.80;;
5752;SDS011;2901;42.140;24.760;2022-09-28T04:44:46;9.07;;;6.35;;
5752;SDS011;2901;42.140;24.760;2022-09-28T04:47:11;13.77;;;6.28;;
5752;SDS011;2901;42.140;24.760;2022-09-28T04:49:36;7.68;;;6.45;;
5752;SDS011;2901;42.140;24.760;2022-09-28T04:52:03;9.52;;;6.07;;
5752;SDS011;2901;42.140;24.760;2022-09-28T04:54:29;7.75;;;6.53;;
5752;SDS011;2901;42.140;24.760;2022-09-28T04:56:54;7.13;;;6.47;;
5752;SDS011;2901;42.140;24.760;2022-09-28T04:59:20;6.88;;;6.28;;
5752;SDS011;2901;42.140;24.760;2022-09-28T05:01:45;13.20;;;6.82;;
5752;SDS011;2901;42.140;24.760;2022-09-28T05:04:11;6.50;;;5.90;;
5752;SDS011;2901;42.140;24.760;2022-09-28T05:06:37;7.90;;;6.15;;
5752;SDS011;2901;42.140;24.760;2022-09-28T05:09:02;6.03;;;5.55;;
5752;SDS011;2901;42.140;24.760;2022-09-28T05:11:28;7.32;;;5.50;;
5752;SDS011;2901;42.140;24.760;2022-09-28T05:13:53;8.82;;;6.03;;
5752;SDS011;2901;42.140;24.760;2022-09-28T05:16:19;6.38;;;5.88;;
5752;SDS011;2901;42.140;24.760;2022-09-28T05:18:44;7.20;;;5.70;;
5752;SDS011;2901;42.140;24.760;2022-09-28T05:21:10;7.57;;;5.85;;
5752;SDS011;2901;42.140;24.760;2022-09-28T05:23:37;8.32;;;6.70;;
5752;SDS011;2901;42.140;24.760;2022-09-28T05:26:03;6.25;;;5.57;;
5752;SDS011;2901;42.140;24.760;2022-09-28T05:28:30;10.20;;;6.55;;
5752;SDS011;2901;42.140;24.760;2022-09-28T05:30:59;13.35;;;8.27;;
5752;SDS011;2901;42.140;24.760;2022-09-28T05:33:29;11.90;;;5.50;;
5752;SDS011;2901;42.140;24.760;2022-09-28T05:35:55;7.28;;;5.43;;
5752;SDS011;2901;42.140;24.760;2022-09-28T05:38:21;5.95;;;5.55;;
5752;SDS011;2901;42.140;24.760;2022-09-28T05:40:47;7.07;;;5.88;;
5752;SDS011;2901;42.140;24.760;2022-09-28T05:43:12;7.45;;;5.72;;
5752;SDS011;2901;42.140;24.760;2022-09-28T05:45:38;10.43;;;5.28;;
5752;SDS011;2901;42.140;24.760;2022-09-28T05:48:03;6.22;;;5.72;;
5752;SDS011;2901;42.140;24.760;2022-09-28T05:50:28;9.30;;;5.20;;
5752;SDS011;2901;42.140;24.760;2022-09-28T05:52:57;5.88;;;5.47;;
5752;SDS011;2901;42.140;24.760;2022-09-28T05:55:27;5.45;;;4.32;;
5752;SDS011;2901;42.140;24.760;2022-09-28T05:57:56;4.50;;;4.25;;
5752;SDS011;2901;42.140;24.760;2022-09-28T06:00:26;9.15;;;4.88;;
5752;SDS011;2901;42.140;24.760;2022-09-28T06:02:59;5.05;;;4.60;;
5752;SDS011;2901;42.140;24.760;2022-09-28T06:05:27;6.15;;;4.80;;
5752;SDS011;2901;42.140;24.760;2022-09-28T06:07:56;8.68;;;4.88;;
5752;SDS011;2901;42.140;24.760;2022-09-28T06:10:23;6.43;;;4.78;;
5752;SDS011;2901;42.140;24.760;2022-09-28T06:12:51;5.88;;;5.10;;
5752;SDS011;2901;42.140;24.760;2022-09-28T06:15:17;4.43;;;3.95;;
5752;SDS011;2901;42.140;24.760;2022-09-28T06:17:43;10.85;;;7.38;;
5752;SDS011;2901;42.140;24.760;2022-09-28T06:20:09;4.97;;;4.50;;
5752;SDS011;2901;42.140;24.760;2022-09-28T06:22:35;5.40;;;4.20;;
5752;SDS011;2901;42.140;24.760;2022-09-28T06:25:01;4.32;;;3.92;;
5752;SDS011;2901;42.140;24.760;2022-09-28T06:27:26;3.42;;;3.05;;
5752;SDS011;2901;42.140;24.760;2022-09-28T06:29:52;4.57;;;3.60;;
5752;SDS011;2901;42.140;24.760;2022-09-28T06:32:17;3.22;;;3.03;;
5752;SDS011;2901;42.140;24.760;2022-09-28T06:34:43;4.00;;;3.70;;
5752;SDS011;2901;42.140;24.760;2022-09-28T06:37:08;6.43;;;3.40;;
5752;SDS011;2901;42.140;24.760;2022-09-28T06:39:34;4.55;;;3.22;;
5752;SDS011;2901;42.140;24.760;2022-09-28T06:41:59;9.18;;;3.17;;
5752;SDS011;2901;42.140;24.760;2022-09-28T06:44:27;5.00;;;3.53;;
5752;SDS011;2901;42.140;24.760;2022-09-28T06:46:53;6.25;;;3.63;;
5752;SDS011;2901;42.140;24.760;2022-09-28T06:49:19;5.75;;;2.80;;
5752;SDS011;2901;42.140;24.760;2022-09-28T06:51:46;4.10;;;2.50;;
5752;SDS011;2901;42.140;24.760;2022-09-28T06:54:11;3.15;;;2.53;;
5752;SDS011;2901;42.140;24.760;2022-09-28T06:56:37;6.13;;;2.75;;
5752;SDS011;2901;42.140;24.760;2022-09-28T06:59:02;3.03;;;2.78;;
5752;SDS011;2901;42.140;24.760;2022-09-28T07:01:28;3.47;;;3.28;;
5752;SDS011;2901;42.140;24.760;2022-09-28T07:03:53;2.72;;;2.42;;
5752;SDS011;2901;42.140;24.760;2022-09-28T07:06:19;2.47;;;2.38;;
5752;SDS011;2901;42.140;24.760;2022-09-28T07:08:47;3.05;;;2.75;;
5752;SDS011;2901;42.140;24.760;2022-09-28T07:11:13;5.22;;;3.20;;
5752;SDS011;2901;42.140;24.760;2022-09-28T07:13:39;2.70;;;2.60;;
5752;SDS011;2901;42.140;24.760;2022-09-28T07:16:05;4.18;;;2.90;;
5752;SDS011;2901;42.140;24.760;2022-09-28T07:18:31;4.25;;;3.03;;
5752;SDS011;2901;42.140;24.760;2022-09-28T07:20:56;3.80;;;2.60;;
5752;SDS011;2901;42.140;24.760;2022-09-28T07:23:23;3.58;;;2.20;;
5752;SDS011;2901;42.140;24.760;2022-09-28T07:25:51;7.28;;;3.50;;
5752;SDS011;2901;42.140;24.760;2022-09-28T07:28:17;2.80;;;2.45;;
5752;SDS011;2901;42.140;24.760;2022-09-28T07:30:44;5.65;;;3.15;;
5752;SDS011;2901;42.140;24.760;2022-09-28T07:33:10;7.88;;;3.05;;
5752;SDS011;2901;42.140;24.760;2022-09-28T07:35:37;5.22;;;3.15;;
5752;SDS011;2901;42.140;24.760;2022-09-28T07:38:03;2.67;;;2.55;;
5752;SDS011;2901;42.140;24.760;2022-09-28T07:40:30;4.78;;;2.83;;
5752;SDS011;2901;42.140;24.760;2022-09-28T07:43:15;3.28;;;2.97;;
5752;SDS011;2901;42.140;24.760;2022-09-28T07:45:44;5.60;;;2.80;;
5752;SDS011;2901;42.140;24.760;2022-09-28T07:48:11;3.38;;;3.08;;
5752;SDS011;2901;42.140;24.760;2022-09-28T07:50:40;3.85;;;2.80;;
5752;SDS011;2901;42.140;24.760;2022-09-28T07:53:25;4.22;;;2.58;;
5752;SDS011;2901;42.140;24.760;2022-09-28T07:55:53;4.95;;;3.05;;
5752;SDS011;2901;42.140;24.760;2022-09-28T07:58:27;4.68;;;3.15;;
5752;SDS011;2901;42.140;24.760;2022-09-28T08:00:53;5.30;;;4.03;;
5752;SDS011;2901;42.140;24.760;2022-09-28T08:03:19;4.25;;;3.10;;
5752;SDS011;2901;42.140;24.760;2022-09-28T08:05:47;5.53;;;3.05;;
5752;SDS011;2901;42.140;24.760;2022-09-28T08:08:13;4.22;;;2.67;;
5752;SDS011;2901;42.140;24.760;2022-09-28T08:10:42;3.25;;;2.95;;
5752;SDS011;2901;42.140;24.760;2022-09-28T08:13:07;4.20;;;2.30;;
5752;SDS011;2901;42.140;24.760;2022-09-28T08:15:33;2.83;;;2.63;;
5752;SDS011;2901;42.140;24.760;2022-09-28T08:18:01;7.22;;;2.72;;
5752;SDS011;2901;42.140;24.760;2022-09-28T08:20:28;4.13;;;2.83;;
5752;SDS011;2901;42.140;24.760;2022-09-28T08:23:12;3.47;;;2.40;;
5752;SDS011;2901;42.140;24.760;2022-09-28T08:25:38;2.42;;;2.22;;
5752;SDS011;2901;42.140;24.760;2022-09-28T08:28:04;12.63;;;3.30;;
5752;SDS011;2901;42.140;24.760;2022-09-28T08:30:33;6.20;;;2.88;;
5752;SDS011;2901;42.140;24.760;2022-09-28T08:32:59;4.05;;;2.72;;
5752;SDS011;2901;42.140;24.760;2022-09-28T08:35:24;6.57;;;2.67;;
5752;SDS011;2901;42.140;24.760;2022-09-28T08:37:50;4.65;;;2.90;;
5752;SDS011;2901;42.140;24.760;2022-09-28T08:40:21;3.97;;;2.53;;
5752;SDS011;2901;42.140;24.760;2022-09-28T08:42:49;2.22;;;2.13;;
5752;SDS011;2901;42.140;24.760;2022-09-28T08:45:24;4.53;;;1.90;;
5752;SDS011;2901;42.140;24.760;2022-09-28T08:47:55;3.90;;;1.92;;
5752;SDS011;2901;42.140;24.760;2022-09-28T08:51:02;6.75;;;2.22;;
5752;SDS011;2901;42.140;24.760;2022-09-28T08:53:37;3.97;;;2.05;;
5752;SDS011;2901;42.140;24.760;2022-09-28T08:58:59;4.45;;;2.38;;
5752;SDS011;2901;42.140;24.760;2022-09-28T09:01:33;12.90;;;2.75;;
5752;SDS011;2901;42.140;24.760;2022-09-28T09:04:03;3.63;;;2.33;;
5752;SDS011;2901;42.140;24.760;2022-09-28T09:06:36;5.95;;;2.92;;
5752;SDS011;2901;42.140;24.760;2022-09-28T09:12:19;2.55;;;2.42;;
5752;SDS011;2901;42.140;24.760;2022-09-28T09:15:08;4.10;;;2.45;;
5752;SDS011;2901;42.140;24.760;2022-09-28T09:17:48;2.38;;;2.13;;
5752;SDS011;2901;42.140;24.760;2022-09-28T09:23:29;2.30;;;1.70;;
5752;SDS011;2901;42.140;24.760;2022-09-28T09:39:12;1.58;;;1.48;;
5752;SDS011;2901;42.140;24.760;2022-09-28T09:41:53;2.53;;;1.58;;
5752;SDS011;2901;42.140;24.760;2022-09-28T09:47:12;5.15;;;2.13;;
5752;SDS011;2901;42.140;24.760;2022-09-28T09:49:57;3.60;;;2.00;;
5752;SDS011;2901;42.140;24.760;2022-09-28T09:57:39;2.92;;;1.73;;
5752;SDS011;2901;42.140;24.760;2022-09-28T10:00:11;3.10;;;1.88;;
5752;SDS011;2901;42.140;24.760;2022-09-28T10:02:38;8.75;;;2.20;;
5752;SDS011;2901;42.140;24.760;2022-09-28T10:12:57;5.43;;;2.47;;
5752;SDS011;2901;42.140;24.760;2022-09-28T10:15:24;2.08;;;1.58;;
5752;SDS011;2901;42.140;24.760;2022-09-28T10:17:52;5.28;;;1.75;;
5752;SDS011;2901;42.140;24.760;2022-09-28T10:20:20;2.25;;;1.80;;
5752;SDS011;2901;42.140;24.760;2022-09-28T10:22:48;4.90;;;1.70;;
5752;SDS011;2901;42.140;24.760;2022-09-28T10:25:15;6.40;;;2.25;;
5752;SDS011;2901;42.140;24.760;2022-09-28T10:27:43;2.50;;;2.30;;
5752;SDS011;2901;42.140;24.760;2022-09-28T10:30:20;3.10;;;2.20;;
5752;SDS011;2901;42.140;24.760;2022-09-28T10:32:48;3.58;;;2.35;;
5752;SDS011;2901;42.140;24.760;2022-09-28T10:35:28;4.53;;;2.35;;
5752;SDS011;2901;42.140;24.760;2022-09-28T10:38:26;8.63;;;2.75;;
5752;SDS011;2901;42.140;24.760;2022-09-28T10:40:58;6.07;;;2.63;;
5752;SDS011;2901;42.140;24.760;2022-09-28T10:43:31;3.00;;;2.80;;
5752;SDS011;2901;42.140;24.760;2022-09-28T10:48:44;2.63;;;2.28;;
5752;SDS011;2901;42.140;24.760;2022-09-28T10:51:11;4.40;;;2.20;;
5752;SDS011;2901;42.140;24.760;2022-09-28T10:53:36;7.90;;;2.20;;
5752;SDS011;2901;42.140;24.760;2022-09-28T10:58:36;4.07;;;1.80;;
5752;SDS011;2901;42.140;24.760;2022-09-28T11:01:05;3.38;;;2.30;;
5752;SDS011;2901;42.140;24.760;2022-09-28T11:03:54;3.83;;;2.10;;
5752;SDS011;2901;42.140;24.760;2022-09-28T11:06:26;4.47;;;2.38;;
5752;SDS011;2901;42.140;24.760;2022-09-28T11:08:54;7.63;;;2.20;;
5752;SDS011;2901;42.140;24.760;2022-09-28T11:11:23;5.95;;;2.30;;
5752;SDS011;2901;42.140;24.760;2022-09-28T11:13:50;3.72;;;1.88;;
5752;SDS011;2901;42.140;24.760;2022-09-28T11:16:22;2.65;;;2.08;;
5752;SDS011;2901;42.140;24.760;2022-09-28T11:18:50;5.93;;;1.60;;
5752;SDS011;2901;42.140;24.760;2022-09-28T11:21:18;9.40;;;2.65;;
5752;SDS011;2901;42.140;24.760;2022-09-28T11:23:57;5.20;;;1.98;;
5752;SDS011;2901;42.140;24.760;2022-09-28T11:26:41;3.25;;;1.70;;
5752;SDS011;2901;42.140;24.760;2022-09-28T11:29:17;2.50;;;1.77;;
5752;SDS011;2901;42.140;24.760;2022-09-28T11:31:48;2.03;;;1.65;;
5752;SDS011;2901;42.140;24.760;2022-09-28T11:39:39;2.72;;;2.13;;
5752;SDS011;2901;42.140;24.760;2022-09-28T11:45:22;1.85;;;1.75;;
5752;SDS011;2901;42.140;24.760;2022-09-28T11:47:55;2.95;;;2.05;;
5752;SDS011;2901;42.140;24.760;2022-09-28T11:50:52;11.77;;;2.15;;
5752;SDS011;2901;42.140;24.760;2022-09-28T11:55:59;4.28;;;1.85;;
5752;SDS011;2901;42.140;24.760;2022-09-28T12:01:27;1.98;;;1.77;;
5752;SDS011;2901;42.140;24.760;2022-09-28T12:04:17;1.75;;;1.45;;
5752;SDS011;2901;42.140;24.760;2022-09-28T12:06:52;20.23;;;2.33;;
5752;SDS011;2901;42.140;24.760;2022-09-28T12:09:26;2.78;;;1.50;;
5752;SDS011;2901;42.140;24.760;2022-09-28T12:12:01;7.35;;;1.90;;
5752;SDS011;2901;42.140;24.760;2022-09-28T12:14:34;2.88;;;1.85;;
5752;SDS011;2901;42.140;24.760;2022-09-28T12:17:06;3.78;;;1.42;;
5752;SDS011;2901;42.140;24.760;2022-09-28T12:19:48;1.55;;;1.45;;
5752;SDS011;2901;42.140;24.760;2022-09-28T12:22:24;4.15;;;2.30;;
5752;SDS011;2901;42.140;24.760;2022-09-28T12:24:56;3.75;;;1.77;;
5752;SDS011;2901;42.140;24.760;2022-09-28T12:41:11;4.25;;;1.15;;
5752;SDS011;2901;42.140;24.760;2022-09-28T12:52:15;4.72;;;1.75;;
5752;SDS011;2901;42.140;24.760;2022-09-28T12:57:29;1.15;;;1.15;;
5752;SDS011;2901;42.140;24.760;2022-09-28T13:05:19;2.42;;;1.35;;
5752;SDS011;2901;42.140;24.760;2022-09-28T13:10:21;3.05;;;1.40;;
5752;SDS011;2901;42.140;24.760;2022-09-28T13:18:15;3.60;;;1.30;;
5752;SDS011;2901;42.140;24.760;2022-09-28T13:23:59;8.23;;;1.63;;
5752;SDS011;2901;42.140;24.760;2022-09-28T13:26:30;1.85;;;1.23;;
5752;SDS011;2901;42.140;24.760;2022-09-28T13:29:02;3.65;;;1.48;;
5752;SDS011;2901;42.140;24.760;2022-09-28T13:31:35;2.50;;;1.50;;
5752;SDS011;2901;42.140;24.760;2022-09-28T13:34:12;8.45;;;2.15;;
5752;SDS011;2901;42.140;24.760;2022-09-28T13:36:44;5.10;;;1.40;;
5752;SDS011;2901;42.140;24.760;2022-09-28T13:42:00;3.15;;;1.95;;
5752;SDS011;2901;42.140;24.760;2022-09-28T13:44:29;5.05;;;1.60;;
5752;SDS011;2901;42.140;24.760;2022-09-28T13:47:17;2.15;;;1.98;;
5752;SDS011;2901;42.140;24.760;2022-09-28T13:55:55;5.22;;;2.05;;
5752;SDS011;2901;42.140;24.760;2022-09-28T13:58:35;4.20;;;1.77;;
5752;SDS011;2901;42.140;24.760;2022-09-28T14:01:43;4.72;;;2.00;;
5752;SDS011;2901;42.140;24.760;2022-09-28T14:04:16;8.43;;;1.80;;
5752;SDS011;2901;42.140;24.760;2022-09-28T14:14:27;3.08;;;1.88;;
5752;SDS011;2901;42.140;24.760;2022-09-28T14:25:29;3.00;;;1.63;;
5752;SDS011;2901;42.140;24.760;2022-09-28T14:36:01;4.70;;;1.60;;
5752;SDS011;2901;42.140;24.760;2022-09-28T14:44:07;7.10;;;2.05;;
5752;SDS011;2901;42.140;24.760;2022-09-28T14:52:03;4.00;;;1.30;;
5752;SDS011;2901;42.140;24.760;2022-09-28T14:54:38;3.58;;;1.40;;
5752;SDS011;2901;42.140;24.760;2022-09-28T14:57:16;4.25;;;2.40;;
5752;SDS011;2901;42.140;24.760;2022-09-28T14:59:47;5.88;;;1.92;;
5752;SDS011;2901;42.140;24.760;2022-09-28T15:04:49;4.30;;;2.53;;
5752;SDS011;2901;42.140;24.760;2022-09-28T15:07:21;2.58;;;2.00;;
5752;SDS011;2901;42.140;24.760;2022-09-28T15:09:53;12.68;;;3.35;;
5752;SDS011;2901;42.140;24.760;2022-09-28T15:12:21;10.32;;;2.80;;
5752;SDS011;2901;42.140;24.760;2022-09-28T15:14:56;6.40;;;2.53;;
5752;SDS011;2901;42.140;24.760;2022-09-28T15:17:24;2.40;;;2.15;;
5752;SDS011;2901;42.140;24.760;2022-09-28T15:22:30;10.63;;;2.70;;
5752;SDS011;2901;42.140;24.760;2022-09-28T15:25:00;7.93;;;2.70;;
5752;SDS011;2901;42.140;24.760;2022-09-28T15:27:34;5.18;;;2.70;;
5752;SDS011;2901;42.140;24.760;2022-09-28T15:32:42;8.18;;;3.10;;
5752;SDS011;2901;42.140;24.760;2022-09-28T15:35:20;4.38;;;1.67;;
5752;SDS011;2901;42.140;24.760;2022-09-28T15:37:50;8.50;;;2.42;;
5752;SDS011;2901;42.140;24.760;2022-09-28T15:42:52;5.93;;;2.15;;
5752;SDS011;2901;42.140;24.760;2022-09-28T15:47:55;7.68;;;3.55;;
5752;SDS011;2901;42.140;24.760;2022-09-28T15:50:44;10.80;;;3.40;;
5752;SDS011;2901;42.140;24.760;2022-09-28T15:53:22;13.35;;;4.15;;
5752;SDS011;2901;42.140;24.760;2022-09-28T15:55:47;5.05;;;3.05;;
5752;SDS011;2901;42.140;24.760;2022-09-28T15:58:19;5.03;;;2.60;;
5752;SDS011;2901;42.140;24.760;2022-09-28T16:00:47;6.82;;;3.45;;
5752;SDS011;2901;42.140;24.760;2022-09-28T16:03:27;16.25;;;4.22;;
5752;SDS011;2901;42.140;24.760;2022-09-28T16:08:22;13.77;;;5.53;;
5752;SDS011;2901;42.140;24.760;2022-09-28T16:13:34;18.67;;;4.88;;
5752;SDS011;2901;42.140;24.760;2022-09-28T16:16:19;6.82;;;5.63;;
5752;SDS011;2901;42.140;24.760;2022-09-28T16:18:50;9.82;;;5.20;;
5752;SDS011;2901;42.140;24.760;2022-09-28T16:21:21;5.13;;;3.92;;
5752;SDS011;2901;42.140;24.760;2022-09-28T16:24:00;19.63;;;6.05;;
5752;SDS011;2901;42.140;24.760;2022-09-28T16:26:27;14.35;;;5.25;;
5752;SDS011;2901;42.140;24.760;2022-09-28T16:28:56;22.88;;;6.10;;
5752;SDS011;2901;42.140;24.760;2022-09-28T16:31:24;17.25;;;5.70;;
5752;SDS011;2901;42.140;24.760;2022-09-28T16:33:55;15.07;;;5.03;;
5752;SDS011;2901;42.140;24.760;2022-09-28T16:36:27;12.65;;;8.07;;
5752;SDS011;2901;42.140;24.760;2022-09-28T16:39:02;20.10;;;9.90;;
5752;SDS011;2901;42.140;24.760;2022-09-28T16:41:28;15.63;;;11.68;;
5752;SDS011;2901;42.140;24.760;2022-09-28T16:43:56;20.15;;;9.57;;
5752;SDS011;2901;42.140;24.760;2022-09-28T16:46:32;21.38;;;6.70;;
5752;SDS011;2901;42.140;24.760;2022-09-28T16:49:03;11.70;;;5.22;;
5752;SDS011;2901;42.140;24.760;2022-09-28T16:51:30;9.60;;;5.88;;
5752;SDS011;2901;42.140;24.760;2022-09-28T16:54:13;9.32;;;4.70;;
5752;SDS011;2901;42.140;24.760;2022-09-28T16:57:15;13.63;;;5.00;;
5752;SDS011;2901;42.140;24.760;2022-09-28T16:59:41;16.70;;;4.75;;
5752;SDS011;2901;42.140;24.760;2022-09-28T17:02:19;6.25;;;3.58;;
5752;SDS011;2901;42.140;24.760;2022-09-28T17:04:49;4.38;;;2.58;;
5752;SDS011;2901;42.140;24.760;2022-09-28T17:07:15;4.85;;;2.55;;
5752;SDS011;2901;42.140;24.760;2022-09-28T17:09:40;5.97;;;2.22;;
5752;SDS011;2901;42.140;24.760;2022-09-28T17:12:11;12.80;;;2.88;;
5752;SDS011;2901;42.140;24.760;2022-09-28T17:14:41;5.00;;;2.88;;
5752;SDS011;2901;42.140;24.760;2022-09-28T17:17:07;5.75;;;3.17;;
5752;SDS011;2901;42.140;24.760;2022-09-28T17:19:33;12.35;;;4.57;;
5752;SDS011;2901;42.140;24.760;2022-09-28T17:21:58;5.35;;;2.63;;
5752;SDS011;2901;42.140;24.760;2022-09-28T17:24:24;6.18;;;3.20;;
5752;SDS011;2901;42.140;24.760;2022-09-28T17:26:49;7.68;;;2.92;;
5752;SDS011;2901;42.140;24.760;2022-09-28T17:29:16;4.63;;;2.60;;
5752;SDS011;2901;42.140;24.760;2022-09-28T17:31:42;7.43;;;2.65;;
5752;SDS011;2901;42.140;24.760;2022-09-28T17:34:10;4.93;;;2.33;;
5752;SDS011;2901;42.140;24.760;2022-09-28T17:36:37;4.75;;;1.67;;
5752;SDS011;2901;42.140;24.760;2022-09-28T17:39:05;2.22;;;1.90;;
5752;SDS011;2901;42.140;24.760;2022-09-28T17:41:30;3.50;;;2.20;;
5752;SDS011;2901;42.140;24.760;2022-09-28T17:43:58;6.60;;;1.60;;
5752;SDS011;2901;42.140;24.760;2022-09-28T17:48:50;1.75;;;1.23;;
5752;SDS011;2901;42.140;24.760;2022-09-28T17:51:16;2.13;;;1.35;;
5752;SDS011;2901;42.140;24.760;2022-09-28T17:53:41;2.03;;;1.33;;
5752;SDS011;2901;42.140;24.760;2022-09-28T17:56:07;1.70;;;1.58;;
5752;SDS011;2901;42.140;24.760;2022-09-28T17:58:33;3.30;;;1.23;;
5752;SDS011;2901;42.140;24.760;2022-09-28T18:00:59;2.85;;;1.80;;
5752;SDS011;2901;42.140;24.760;2022-09-28T18:03:24;4.38;;;2.17;;
5752;SDS011;2901;42.140;24.760;2022-09-28T18:06:12;2.50;;;2.30;;
5752;SDS011;2901;42.140;24.760;2022-09-28T18:08:38;2.50;;;1.23;;
5752;SDS011;2901;42.140;24.760;2022-09-28T18:11:04;2.35;;;2.00;;
5752;SDS011;2901;42.140;24.760;2022-09-28T18:13:30;8.98;;;1.75;;
5752;SDS011;2901;42.140;24.760;2022-09-28T18:15:55;1.75;;;1.35;;
5752;SDS011;2901;42.140;24.760;2022-09-28T18:18:21;3.20;;;1.77;;
5752;SDS011;2901;42.140;24.760;2022-09-28T18:20:47;1.35;;;1.00;;
5752;SDS011;2901;42.140;24.760;2022-09-28T18:23:14;1.38;;;1.38;;
5752;SDS011;2901;42.140;24.760;2022-09-28T18:25:40;1.27;;;1.13;;
5752;SDS011;2901;42.140;24.760;2022-09-28T18:28:07;1.95;;;1.77;;
5752;SDS011;2901;42.140;24.760;2022-09-28T18:30:32;2.83;;;1.75;;
5752;SDS011;2901;42.140;24.760;2022-09-28T18:33:02;2.05;;;1.80;;
5752;SDS011;2901;42.140;24.760;2022-09-28T18:35:28;3.83;;;1.60;;
5752;SDS011;2901;42.140;24.760;2022-09-28T18:37:53;3.35;;;1.15;;
5752;SDS011;2901;42.140;24.760;2022-09-28T18:40:18;1.92;;;1.63;;